LFOV

Details ICAO LFOV (LVA)
Name Laval Entrammes
Region France
Timezone Europe/Paris (UTC+2.0)
Plans Departing 37
Arriving 28
Stats Elevation 330 ft / 101 m (AMSL)
Location 48.031360° -0.742988°
Runways 1
Magnetic Variation 0.251° W
Sunrise 2018-05-24 04:15:40 UTC / 2018-05-24 06:15:40 Local
Sunset 2018-05-24 19:46:49 UTC / 2018-05-24 21:46:49 Local
Advertisement - Login to hide

Runways

ID Width Length Bearing (true) Bearing (mag) Surface Threshold Offset Overrun Length
15 98 ft / 30 m 5,004 ft / 1,525 m 142.43° 142.68° Asphalt 0 ft / 0 m 197 ft / 60 m
33 98 ft / 30 m 5,004 ft / 1,525 m 322.44° 322.69° Asphalt 985 ft / 300 m 197 ft / 60 m

Map

Weather


0- 5 10 15 20 25 30 35+ Temperature / ° C

Clouds and Precipitation
Forecast for 2018-05-24 18:00 UTC. Updated 3 hours ago

Ground ~20,000 ft ~40,000 ft Winds

METAR

LFOV 242000Z AUTO 36006KT 9999 +RA ///CB 17/14 Q1016

TAF

Not found

Frequencies

Tower 119.30 MHz LAVAL INFO
Warning: Do not use this data for real-world aviation or navigation. No guarantee of current accuracy is given.